Time;durP1;ratioP1;P1;durP2;ratioP2;P2;SDS_P1;SDS_P2;PMS_P1;PMS_P2;Temp;Humidity;BMP_temperature;BMP_pressure;BME280_temperature;BME280_humidity;BME280_pressure;Samples;Min_cycle;Max_cycle;Signal;HPM_P1;HPM_P2
2022/01/04 00:01:17;;;;;;;0.80;0.60;;;8.00;99.90;;;;;;4928360;29;20195;-83
2022/01/04 00:03:42;;;;;;;0.80;0.60;;;8.00;99.90;;;;;;4952086;28;20199;-83
2022/01/04 00:06:09;;;;;;;0.80;0.60;;;8.00;99.90;;;;;;4950148;28;20270;-83
2022/01/04 00:08:35;;;;;;;0.80;0.60;;;8.00;99.90;;;;;;4946418;28;20246;-83
2022/01/04 00:11:14;;;;;;;1.20;0.97;;;8.00;99.90;;;;;;4935296;29;20496;-83
2022/01/04 00:13:39;;;;;;;0.80;0.60;;;8.00;99.90;;;;;;4941890;28;20193;-83
2022/01/04 00:16:07;;;;;;;0.80;0.60;;;8.00;99.90;;;;;;4950818;28;20434;-83
2022/01/04 00:18:33;;;;;;;0.80;0.60;;;8.00;99.90;;;;;;4935762;29;20195;-83
2022/01/04 00:20:59;;;;;;;0.80;0.60;;;8.00;99.90;;;;;;4952649;28;20447;-83
2022/01/04 00:23:24;;;;;;;0.80;0.60;;;7.90;99.90;;;;;;4944744;28;20468;-83
2022/01/04 00:25:50;;;;;;;0.80;0.60;;;7.90;99.90;;;;;;4952018;28;20226;-83
2022/01/04 00:28:16;;;;;;;0.80;0.63;;;7.80;99.90;;;;;;4951888;28;20235;-82
2022/01/04 00:30:41;;;;;;;0.80;0.60;;;7.80;99.90;;;;;;4952288;28;20224;-83
2022/01/04 00:33:10;;;;;;;0.93;0.80;;;7.80;99.90;;;;;;4950139;28;20199;-83
2022/01/04 00:35:36;;;;;;;0.80;0.60;;;7.80;99.90;;;;;;4951663;28;20529;-83
2022/01/04 00:38:01;;;;;;;0.80;0.60;;;7.80;99.90;;;;;;4950990;28;20453;-83
2022/01/04 00:40:27;;;;;;;0.80;0.60;;;7.80;99.90;;;;;;4952940;28;20914;-83
2022/01/04 00:42:58;;;;;;;0.80;0.60;;;7.80;99.90;;;;;;4951715;28;20194;-83
2022/01/04 00:45:25;;;;;;;0.80;0.60;;;7.80;99.90;;;;;;4950635;28;20186;-82
2022/01/04 00:50:20;;;;;;;0.80;0.70;;;7.80;99.90;;;;;;4953598;28;21045;-83
2022/01/04 00:52:46;;;;;;;0.90;0.80;;;7.80;99.90;;;;;;4953946;28;20438;-83
2022/01/04 00:55:11;;;;;;;0.80;0.60;;;7.80;99.90;;;;;;4956721;28;20860;-83
2022/01/04 00:57:37;;;;;;;0.80;0.60;;;7.90;99.90;;;;;;4936136;28;20182;-83
2022/01/04 01:00:11;;;;;;;2.90;1.30;;;7.80;99.90;;;;;;4951587;28;20186;-83
2022/01/04 01:02:36;;;;;;;1.77;1.00;;;7.90;99.90;;;;;;4943110;28;20447;-83
2022/01/04 01:05:04;;;;;;;0.80;0.70;;;7.90;99.90;;;;;;4934371;28;20442;-83
2022/01/04 01:07:29;;;;;;;0.70;0.53;;;7.80;99.90;;;;;;4945728;28;20183;-83
2022/01/04 01:10:09;;;;;;;0.80;0.60;;;7.70;99.90;;;;;;4933881;29;20545;-83
2022/01/04 01:12:35;;;;;;;0.80;0.60;;;7.70;99.90;;;;;;4950906;28;20186;-82
2022/01/04 01:15:03;;;;;;;0.80;0.70;;;7.60;99.90;;;;;;4951632;28;20442;-83
2022/01/04 01:17:30;;;;;;;0.80;0.60;;;7.60;99.90;;;;;;4951144;28;20705;-83
2022/01/04 01:19:56;;;;;;;0.80;0.70;;;7.70;99.90;;;;;;4933782;28;20438;-83
2022/01/04 01:22:22;;;;;;;0.80;0.60;;;7.70;99.90;;;;;;4925248;29;21327;-82
2022/01/04 01:24:47;;;;;;;0.80;0.60;;;7.70;99.90;;;;;;4941656;28;20454;-83
2022/01/04 01:27:13;;;;;;;1.00;1.00;;;7.70;99.90;;;;;;4950464;28;20290;-83
2022/01/04 01:29:38;;;;;;;0.80;0.60;;;7.70;99.90;;;;;;4951803;28;20287;-83
2022/01/04 01:32:04;;;;;;;0.80;0.60;;;7.70;99.90;;;;;;4950672;28;20191;-83
2022/01/04 01:34:30;;;;;;;0.90;0.80;;;7.70;99.90;;;;;;4951535;28;20191;-83
2022/01/04 01:36:55;;;;;;;0.80;0.60;;;7.70;99.90;;;;;;4929322;28;20434;-84
2022/01/04 01:39:21;;;;;;;0.80;0.60;;;7.70;99.90;;;;;;4950889;28;20685;-83
2022/01/04 01:41:46;;;;;;;1.73;1.03;;;7.70;99.90;;;;;;4948862;28;20222;-83
2022/01/04 01:44:12;;;;;;;0.80;0.60;;;7.70;99.90;;;;;;4943477;28;20196;-83
2022/01/04 01:46:37;;;;;;;0.80;0.60;;;7.70;99.90;;;;;;4941517;28;20196;-83
2022/01/04 01:49:03;;;;;;;0.80;0.70;;;7.70;99.90;;;;;;4947805;28;20242;-84
2022/01/04 01:51:30;;;;;;;0.80;0.67;;;7.60;99.90;;;;;;4946972;28;20626;-84
2022/01/04 01:53:56;;;;;;;0.80;0.60;;;7.60;99.90;;;;;;4950751;28;20183;-83
2022/01/04 01:56:21;;;;;;;0.80;0.60;;;7.50;99.90;;;;;;4950846;28;20492;-84
2022/01/04 01:58:47;;;;;;;0.80;0.60;;;7.50;99.90;;;;;;4949294;28;20443;-83
2022/01/04 02:01:13;;;;;;;0.80;0.70;;;7.60;99.90;;;;;;4942195;28;20194;-83
2022/01/04 02:03:39;;;;;;;0.80;0.60;;;7.50;99.90;;;;;;4956213;28;20182;-83
2022/01/04 02:06:05;;;;;;;0.80;0.60;;;7.50;99.90;;;;;;4936572;28;20453;-83
2022/01/04 02:08:31;;;;;;;1.20;1.10;;;7.50;99.90;;;;;;4936693;29;20467;-83
2022/01/04 02:10:58;;;;;;;0.80;0.80;;;7.50;99.90;;;;;;4940164;28;20453;-83
2022/01/04 02:13:25;;;;;;;0.80;0.60;;;7.60;99.90;;;;;;4931095;28;20201;-83
2022/01/04 02:15:52;;;;;;;0.80;0.70;;;7.60;99.90;;;;;;4950126;28;20426;-83
2022/01/04 02:18:18;;;;;;;1.20;1.10;;;7.60;99.90;;;;;;4950811;28;20453;-83
2022/01/04 02:20:43;;;;;;;0.80;0.70;;;7.70;99.90;;;;;;4947459;28;20469;-84
2022/01/04 02:23:09;;;;;;;0.80;0.60;;;7.70;99.90;;;;;;4949816;28;20187;-84
2022/01/04 02:25:35;;;;;;;0.80;0.60;;;7.70;99.90;;;;;;4951176;28;20195;-83
2022/01/04 02:28:01;;;;;;;0.80;0.60;;;7.70;99.90;;;;;;4950252;28;20234;-83
2022/01/04 02:30:26;;;;;;;4.03;1.47;;;7.70;99.90;;;;;;4940130;28;20191;-83
2022/01/04 02:32:52;;;;;;;0.80;0.63;;;7.70;99.90;;;;;;4949630;28;20445;-84
2022/01/04 02:35:22;;;;;;;0.80;0.70;;;7.70;99.90;;;;;;4944895;28;20296;-83
2022/01/04 02:37:48;;;;;;;0.90;0.80;;;7.70;99.90;;;;;;4947866;28;20209;-84
2022/01/04 02:40:14;;;;;;;0.80;0.60;;;7.70;99.90;;;;;;4931898;29;20454;-83
2022/01/04 02:42:40;;;;;;;0.80;0.60;;;7.70;99.90;;;;;;4947815;28;20569;-84
2022/01/04 02:45:08;;;;;;;0.80;0.60;;;7.70;99.90;;;;;;4947852;28;20469;-84
2022/01/04 02:47:33;;;;;;;0.80;0.70;;;7.70;99.90;;;;;;4948000;28;20797;-84
2022/01/04 02:49:59;;;;;;;0.80;0.60;;;7.70;99.90;;;;;;4945559;28;20489;-84
2022/01/04 02:52:24;;;;;;;0.80;0.70;;;7.70;99.90;;;;;;4947543;28;20215;-84
2022/01/04 02:54:50;;;;;;;0.80;0.60;;;7.70;99.90;;;;;;4932414;28;20210;-84
2022/01/04 02:57:16;;;;;;;0.80;0.70;;;7.70;99.90;;;;;;4944492;28;20558;-84
2022/01/04 02:59:41;;;;;;;0.80;0.60;;;7.70;99.90;;;;;;4952848;28;20828;-83
2022/01/04 03:02:07;;;;;;;0.80;0.60;;;7.70;99.90;;;;;;4948909;28;20305;-84
2022/01/04 03:04:33;;;;;;;0.80;0.60;;;7.70;99.90;;;;;;4952504;28;20193;-83
2022/01/04 03:06:59;;;;;;;0.80;0.70;;;7.70;99.90;;;;;;4942813;28;20648;-83
2022/01/04 03:09:24;;;;;;;0.80;0.70;;;7.70;99.90;;;;;;4941281;28;20230;-83
2022/01/04 03:11:50;;;;;;;0.90;0.80;;;7.70;99.90;;;;;;4936138;28;20565;-83
2022/01/04 03:14:15;;;;;;;0.80;0.60;;;7.70;99.90;;;;;;4954670;28;20202;-83
2022/01/04 03:16:41;;;;;;;0.80;0.60;;;7.70;99.90;;;;;;4953521;28;20183;-83
2022/01/04 03:19:06;;;;;;;1.00;0.90;;;7.70;99.90;;;;;;4950483;28;20841;-83
2022/01/04 03:21:37;;;;;;;0.80;0.70;;;7.70;99.90;;;;;;4930494;29;20249;-83
2022/01/04 03:24:04;;;;;;;0.80;0.70;;;7.60;99.90;;;;;;4952577;28;20299;-83
2022/01/04 03:26:30;;;;;;;0.80;0.60;;;7.60;99.90;;;;;;4932789;29;20422;-83
2022/01/04 03:28:57;;;;;;;0.90;0.70;;;7.70;99.90;;;;;;4947594;28;20548;-83
2022/01/04 03:31:23;;;;;;;0.80;0.60;;;7.60;99.90;;;;;;4934013;29;20195;-84
2022/01/04 03:33:48;;;;;;;0.80;0.60;;;7.70;99.90;;;;;;4943073;28;20445;-84
2022/01/04 03:36:14;;;;;;;1.10;1.00;;;7.60;99.90;;;;;;4933252;28;20210;-83
2022/01/04 03:38:41;;;;;;;0.80;0.80;;;7.70;99.90;;;;;;4935117;28;20195;-83
2022/01/04 03:41:08;;;;;;;4.30;1.70;;;7.70;99.90;;;;;;4952916;28;20442;-83
2022/01/04 03:43:34;;;;;;;0.80;0.67;;;7.70;99.90;;;;;;4951831;28;20445;-83
2022/01/04 03:45:59;;;;;;;0.80;0.60;;;7.70;99.90;;;;;;4947785;28;20436;-84
2022/01/04 03:48:25;;;;;;;0.80;0.60;;;7.70;99.90;;;;;;4950363;28;20832;-83
2022/01/04 03:50:50;;;;;;;1.00;0.90;;;7.60;99.90;;;;;;4949524;28;20277;-82
2022/01/04 03:53:16;;;;;;;0.80;0.60;;;7.60;99.90;;;;;;4947112;28;20699;-83
2022/01/04 03:55:41;;;;;;;0.80;0.60;;;7.60;99.90;;;;;;4946144;28;20199;-83
2022/01/04 03:58:07;;;;;;;0.80;0.60;;;7.70;99.90;;;;;;4932321;29;20537;-83
2022/01/04 04:00:32;;;;;;;0.80;0.60;;;7.70;99.90;;;;;;4933968;29;20294;-84
2022/01/04 04:02:58;;;;;;;0.97;0.80;;;7.60;99.90;;;;;;4948019;28;20194;-83
2022/01/04 04:05:23;;;;;;;0.80;0.60;;;7.60;99.90;;;;;;4949558;28;20596;-83
2022/01/04 04:07:49;;;;;;;0.80;0.70;;;7.60;99.90;;;;;;4948590;28;20190;-83
2022/01/04 04:10:14;;;;;;;0.80;0.70;;;7.60;99.90;;;;;;4948437;28;20263;-83
2022/01/04 04:12:40;;;;;;;0.80;0.70;;;7.60;99.90;;;;;;4944618;28;20198;-83
2022/01/04 04:15:08;;;;;;;0.80;0.60;;;7.60;99.90;;;;;;4953846;28;20625;-83
2022/01/04 04:17:35;;;;;;;0.80;0.80;;;7.60;99.90;;;;;;4951158;28;20550;-83
2022/01/04 04:20:01;;;;;;;0.80;0.70;;;7.60;99.90;;;;;;4947924;28;20954;-83
2022/01/04 04:22:26;;;;;;;0.80;0.60;;;7.60;99.90;;;;;;4954146;28;20435;-83
2022/01/04 04:24:52;;;;;;;0.97;0.90;;;7.60;99.90;;;;;;4954537;28;20479;-83
2022/01/04 04:27:17;;;;;;;0.80;0.60;;;7.60;99.90;;;;;;4953048;28;20246;-83
2022/01/04 04:29:43;;;;;;;0.80;0.60;;;7.60;99.90;;;;;;4931388;29;20803;-83
2022/01/04 04:32:10;;;;;;;0.80;0.60;;;7.60;99.90;;;;;;4933131;29;20192;-83
2022/01/04 04:34:36;;;;;;;0.80;0.60;;;7.60;99.90;;;;;;4930003;29;20191;-83
2022/01/04 04:37:03;;;;;;;0.80;0.77;;;7.60;99.90;;;;;;4921732;29;20436;-83
2022/01/04 04:39:29;;;;;;;0.80;0.70;;;7.60;99.90;;;;;;4922859;29;20535;-83
2022/01/04 04:41:54;;;;;;;0.80;0.60;;;7.60;99.90;;;;;;4931871;29;20455;-83
2022/01/04 04:44:20;;;;;;;0.80;0.67;;;7.50;99.90;;;;;;4931743;29;20800;-83
2022/01/04 04:46:46;;;;;;;0.80;0.70;;;7.50;99.90;;;;;;4930221;29;20194;-84
2022/01/04 04:49:11;;;;;;;0.80;0.70;;;7.50;99.90;;;;;;4931930;29;20262;-83
2022/01/04 04:51:37;;;;;;;0.80;0.70;;;7.50;99.90;;;;;;4929119;29;20187;-83
2022/01/04 04:54:03;;;;;;;0.80;0.80;;;7.50;99.90;;;;;;4932618;29;20443;-83
2022/01/04 04:56:29;;;;;;;3.00;0.83;;;7.50;99.90;;;;;;4924568;29;20451;-83
2022/01/04 04:58:55;;;;;;;0.80;0.70;;;7.50;99.90;;;;;;4932621;29;20861;-83
2022/01/04 05:01:20;;;;;;;1.27;1.17;;;7.50;99.90;;;;;;4925982;29;20560;-83
2022/01/04 05:03:46;;;;;;;0.90;0.80;;;7.50;99.90;;;;;;4929843;29;20246;-84
2022/01/04 05:06:11;;;;;;;0.80;0.60;;;7.50;99.90;;;;;;4931034;29;20261;-83
2022/01/04 05:08:37;;;;;;;0.90;0.80;;;7.50;99.90;;;;;;4926804;29;20262;-83
2022/01/04 05:11:02;;;;;;;0.80;0.60;;;7.50;99.90;;;;;;4927586;29;20342;-83
2022/01/04 05:13:28;;;;;;;0.80;0.60;;;7.50;99.90;;;;;;4927463;29;20188;-83
2022/01/04 05:15:54;;;;;;;0.80;0.60;;;7.50;99.90;;;;;;4924046;29;20773;-84
2022/01/04 05:18:20;;;;;;;0.80;0.67;;;7.50;99.90;;;;;;4936334;28;20678;-83
2022/01/04 05:20:45;;;;;;;0.80;0.80;;;7.50;99.90;;;;;;4921760;29;20451;-83
2022/01/04 05:23:11;;;;;;;0.80;0.70;;;7.50;99.90;;;;;;4932705;29;20199;-83
2022/01/04 05:25:36;;;;;;;0.90;0.80;;;7.50;99.90;;;;;;4932389;28;20677;-83
2022/01/04 05:28:02;;;;;;;0.80;0.70;;;7.50;99.90;;;;;;4934628;28;20978;-83
2022/01/04 05:30:27;;;;;;;0.77;0.60;;;7.50;99.90;;;;;;4949047;28;20590;-83
2022/01/04 05:32:53;;;;;;;0.80;0.60;;;7.50;99.90;;;;;;4947783;28;20194;-83
2022/01/04 05:35:18;;;;;;;0.80;0.60;;;7.40;99.90;;;;;;4950742;28;20558;-82
2022/01/04 05:37:44;;;;;;;1.63;1.53;;;7.40;99.90;;;;;;4931928;29;20202;-83
2022/01/04 05:40:10;;;;;;;0.80;0.60;;;7.40;99.90;;;;;;4923893;28;20190;-83
2022/01/04 05:42:36;;;;;;;0.80;0.60;;;7.40;99.90;;;;;;4923180;29;20215;-83
2022/01/04 05:45:01;;;;;;;0.80;0.70;;;7.40;99.90;;;;;;4946923;28;20446;-83
2022/01/04 05:47:27;;;;;;;1.03;0.93;;;7.40;99.90;;;;;;4949989;28;20194;-83
2022/01/04 05:49:53;;;;;;;0.80;0.60;;;7.40;99.90;;;;;;4946135;28;20230;-83
2022/01/04 05:52:19;;;;;;;3.07;1.10;;;7.40;99.90;;;;;;4949183;28;20186;-83
2022/01/04 05:54:46;;;;;;;0.80;0.60;;;7.40;99.90;;;;;;4941929;28;20201;-83
2022/01/04 05:57:11;;;;;;;0.80;0.70;;;7.40;99.90;;;;;;4942561;28;20183;-83
2022/01/04 05:59:37;;;;;;;0.90;0.90;;;7.50;99.90;;;;;;4956534;28;22170;-83
2022/01/04 06:02:03;;;;;;;1.53;1.37;;;7.50;99.90;;;;;;4943575;28;20198;-83
2022/01/04 06:04:28;;;;;;;0.80;0.60;;;7.40;99.90;;;;;;4941307;28;20199;-83
2022/01/04 06:06:54;;;;;;;0.80;0.60;;;7.50;99.90;;;;;;4943670;28;20529;-83
2022/01/04 06:09:27;;;;;;;0.80;0.60;;;7.50;99.90;;;;;;4949511;28;20232;-83
2022/01/04 06:17:05;;;;;;;0.80;0.60;;;7.50;99.90;;;;;;4946730;28;20561;-83
2022/01/04 06:19:30;;;;;;;1.63;1.53;;;7.50;99.90;;;;;;4924625;29;20545;-84
2022/01/04 06:21:56;;;;;;;0.80;0.60;;;7.50;99.90;;;;;;4927477;28;20568;-83
2022/01/04 06:24:21;;;;;;;0.80;0.60;;;7.50;99.90;;;;;;4948680;28;20857;-83
2022/01/04 06:26:47;;;;;;;0.80;0.60;;;7.50;99.90;;;;;;4944857;28;20201;-83
2022/01/04 06:29:14;;;;;;;0.80;0.70;;;7.50;99.90;;;;;;4928347;29;20230;-83
2022/01/04 06:31:40;;;;;;;0.80;0.63;;;7.50;99.90;;;;;;4945778;28;20234;-83
2022/01/04 06:34:06;;;;;;;0.80;0.70;;;7.50;99.90;;;;;;4942094;28;20528;-84
2022/01/04 06:36:31;;;;;;;0.80;0.60;;;7.50;99.90;;;;;;4948673;28;21067;-83
2022/01/04 06:38:57;;;;;;;0.80;0.60;;;7.50;99.90;;;;;;4946371;28;20191;-84
2022/01/04 06:41:22;;;;;;;1.00;0.90;;;7.50;99.90;;;;;;4931297;28;20203;-82
2022/01/04 06:43:48;;;;;;;1.10;0.97;;;7.40;99.90;;;;;;4958894;28;20225;-84
2022/01/04 06:46:13;;;;;;;0.80;0.60;;;7.40;99.90;;;;;;4954095;28;20199;-82
2022/01/04 06:48:40;;;;;;;2.03;1.83;;;7.30;99.90;;;;;;4949971;28;20207;-83
2022/01/04 06:51:05;;;;;;;0.80;0.60;;;7.30;99.90;;;;;;4946111;28;20191;-83
2022/01/04 06:53:32;;;;;;;0.70;0.60;;;7.30;99.90;;;;;;4949527;28;20434;-83
2022/01/04 06:55:57;;;;;;;0.80;0.70;;;7.30;99.90;;;;;;4946249;28;20191;-83
2022/01/04 06:58:23;;;;;;;0.80;0.70;;;7.30;99.90;;;;;;4949783;28;20997;-83
2022/01/04 07:00:48;;;;;;;0.80;0.70;;;7.20;99.90;;;;;;4951409;28;20215;-83
2022/01/04 07:03:14;;;;;;;0.90;0.90;;;7.20;99.90;;;;;;4928353;29;20191;-83
2022/01/04 07:05:39;;;;;;;0.90;0.90;;;7.20;99.90;;;;;;4945896;28;20202;-83
2022/01/04 07:08:05;;;;;;;0.80;0.60;;;7.20;99.90;;;;;;4926731;29;20198;-83
2022/01/04 07:10:30;;;;;;;0.80;0.60;;;7.20;99.90;;;;;;4934426;29;20230;-83
2022/01/04 07:12:56;;;;;;;0.80;0.60;;;7.20;99.90;;;;;;4935663;29;20802;-83
2022/01/04 07:15:22;;;;;;;0.80;0.70;;;7.10;99.90;;;;;;4952701;28;20284;-83
2022/01/04 07:17:47;;;;;;;0.80;0.70;;;7.10;99.90;;;;;;4953951;28;20461;-83
2022/01/04 07:20:13;;;;;;;1.53;1.13;;;7.10;99.90;;;;;;4947544;28;20223;-83
2022/01/04 07:22:39;;;;;;;0.80;0.80;;;7.10;99.90;;;;;;4943699;28;20194;-83
2022/01/04 07:25:05;;;;;;;1.20;1.10;;;7.10;99.90;;;;;;4944881;28;20195;-81
2022/01/04 07:27:32;;;;;;;0.80;0.60;;;7.10;99.90;;;;;;4945582;28;20191;-83
2022/01/04 07:29:57;;;;;;;0.80;0.60;;;7.10;99.90;;;;;;4953371;28;20492;-85
2022/01/04 07:32:23;;;;;;;1.37;1.30;;;7.10;99.90;;;;;;4952817;28;20449;-83
2022/01/04 07:34:48;;;;;;;1.90;0.87;;;7.10;99.90;;;;;;4953517;28;20632;-85
2022/01/04 07:37:14;;;;;;;0.80;0.60;;;7.10;99.90;;;;;;4953727;28;20260;-85
2022/01/04 07:39:40;;;;;;;1.37;1.27;;;7.10;99.90;;;;;;4933768;28;20255;-84
2022/01/04 07:42:06;;;;;;;0.80;0.67;;;7.00;99.90;;;;;;4954006;28;20594;-84
2022/01/04 07:44:31;;;;;;;0.80;0.60;;;7.00;99.90;;;;;;4950192;28;20461;-84
2022/01/04 07:46:57;;;;;;;2.17;2.00;;;7.10;99.90;;;;;;4934130;28;20195;-83
2022/01/04 07:49:23;;;;;;;0.80;0.70;;;7.10;99.90;;;;;;4928760;29;20498;-83
2022/01/04 07:51:48;;;;;;;1.00;0.70;;;7.00;99.90;;;;;;4943781;28;20555;-82
2022/01/04 07:54:14;;;;;;;0.80;0.60;;;7.00;99.90;;;;;;4943952;28;20198;-83
2022/01/04 07:56:39;;;;;;;4.30;1.00;;;7.10;99.90;;;;;;4941336;28;20225;-83
2022/01/04 07:59:05;;;;;;;1.10;1.00;;;7.10;99.90;;;;;;4950958;28;20274;-84
2022/01/04 08:01:31;;;;;;;0.93;0.63;;;7.10;99.90;;;;;;4941837;28;20547;-83
2022/01/04 08:03:57;;;;;;;0.80;0.60;;;7.10;99.90;;;;;;4948606;28;20190;-82
2022/01/04 08:06:23;;;;;;;0.90;0.80;;;7.10;99.90;;;;;;4951044;28;20449;-83
2022/01/04 08:08:49;;;;;;;1.00;0.80;;;7.00;99.90;;;;;;4952794;28;20466;-83
2022/01/04 08:11:14;;;;;;;0.80;0.60;;;7.00;99.90;;;;;;4950957;28;20685;-82
2022/01/04 08:13:40;;;;;;;0.80;0.60;;;7.00;99.90;;;;;;4949888;28;20446;-87
2022/01/04 08:16:05;;;;;;;0.80;0.70;;;6.90;99.90;;;;;;4934757;28;20559;-87
2022/01/04 08:18:31;;;;;;;1.10;0.97;;;6.90;99.90;;;;;;4946326;28;20655;-87
2022/01/04 08:20:57;;;;;;;0.80;0.60;;;6.90;99.90;;;;;;4939425;28;20194;-87
2022/01/04 08:23:25;;;;;;;1.27;1.17;;;6.90;99.90;;;;;;4936265;29;20190;-86
2022/01/04 08:25:51;;;;;;;2.03;1.83;;;7.00;99.90;;;;;;4945845;28;20960;-87
2022/01/04 08:28:17;;;;;;;0.80;0.60;;;7.00;99.90;;;;;;4946786;28;20608;-87
2022/01/04 08:30:43;;;;;;;0.80;0.60;;;7.00;99.90;;;;;;4946179;28;20912;-86
2022/01/04 08:33:10;;;;;;;0.77;0.60;;;7.00;99.90;;;;;;4951922;28;20186;-87
2022/01/04 08:35:36;;;;;;;0.70;0.60;;;7.00;99.90;;;;;;4933190;28;20442;-86
2022/01/04 08:38:02;;;;;;;0.80;0.60;;;7.00;99.90;;;;;;4949071;28;20445;-87
2022/01/04 08:40:28;;;;;;;0.80;0.60;;;7.00;99.90;;;;;;4950071;28;20933;-87
2022/01/04 08:42:53;;;;;;;0.93;0.93;;;7.00;99.90;;;;;;4957783;28;20800;-87
2022/01/04 08:45:21;;;;;;;1.00;0.90;;;7.00;99.90;;;;;;4939377;29;20651;-86
2022/01/04 08:47:47;;;;;;;1.10;1.00;;;7.00;99.90;;;;;;4932776;29;20221;-86
2022/01/04 08:50:14;;;;;;;0.70;0.60;;;7.10;99.90;;;;;;4930350;29;21032;-87
2022/01/04 08:52:40;;;;;;;0.80;0.60;;;7.10;99.90;;;;;;4959100;28;20437;-87
2022/01/04 08:55:07;;;;;;;0.80;0.70;;;7.10;99.90;;;;;;4952338;28;20430;-87
2022/01/04 08:57:32;;;;;;;1.17;1.07;;;7.10;99.90;;;;;;4951795;28;20666;-86
2022/01/04 08:59:58;;;;;;;0.80;0.67;;;7.10;99.90;;;;;;4951741;28;20441;-86
2022/01/04 09:02:24;;;;;;;0.80;0.60;;;7.10;99.90;;;;;;4945487;28;20191;-87
2022/01/04 09:04:50;;;;;;;0.80;0.80;;;7.10;99.90;;;;;;4930010;29;20186;-87
2022/01/04 09:07:16;;;;;;;0.80;0.60;;;7.10;99.90;;;;;;4951721;28;20194;-87
2022/01/04 09:09:42;;;;;;;0.80;0.70;;;7.10;99.90;;;;;;4948815;28;20522;-87
2022/01/04 09:12:08;;;;;;;0.80;0.60;;;7.10;99.90;;;;;;4945096;28;20558;-88
2022/01/04 09:14:55;;;;;;;0.80;0.60;;;7.10;99.90;;;;;;4945765;28;20202;-86
2022/01/04 09:20:09;;;;;;;3.27;2.10;;;7.10;99.90;;;;;;4945289;28;20867;-88
2022/01/04 09:22:35;;;;;;;0.80;0.70;;;7.10;99.90;;;;;;4926362;29;20443;-87
2022/01/04 09:25:00;;;;;;;0.87;0.77;;;7.10;99.90;;;;;;4952197;28;20886;-88
2022/01/04 09:27:26;;;;;;;1.27;1.17;;;7.10;99.90;;;;;;4950649;28;20577;-87
2022/01/04 09:29:52;;;;;;;1.40;1.00;;;7.20;99.90;;;;;;4925498;29;20281;-88
2022/01/04 09:32:19;;;;;;;7.53;1.67;;;7.10;99.90;;;;;;4952927;28;20265;-88
2022/01/04 09:34:45;;;;;;;1.10;1.00;;;7.20;99.90;;;;;;4950123;28;20450;-88
2022/01/04 09:37:10;;;;;;;0.97;0.97;;;7.10;99.90;;;;;;4929049;29;21017;-87
2022/01/04 09:39:36;;;;;;;0.80;0.60;;;7.10;99.90;;;;;;4951256;28;20462;-88
2022/01/04 09:42:02;;;;;;;0.90;0.90;;;7.10;99.90;;;;;;4944043;28;20195;-88
2022/01/04 09:44:28;;;;;;;2.47;1.37;;;7.10;99.90;;;;;;4936732;28;20196;-88
2022/01/04 09:46:55;;;;;;;0.70;0.57;;;7.10;99.90;;;;;;4957525;28;20451;-88
2022/01/04 09:49:21;;;;;;;0.80;0.60;;;7.10;99.90;;;;;;4944845;28;20217;-87
2022/01/04 09:51:48;;;;;;;1.43;1.33;;;7.10;99.90;;;;;;4946953;28;20450;-87
2022/01/04 09:54:20;;;;;;;1.10;0.93;;;7.10;99.90;;;;;;4945147;28;20486;-86
2022/01/04 09:56:47;;;;;;;0.80;0.70;;;7.10;99.90;;;;;;4932321;28;20533;-87
2022/01/04 09:59:12;;;;;;;3.80;2.40;;;7.10;99.90;;;;;;4948450;28;20466;-87
2022/01/04 10:01:39;;;;;;;0.93;0.83;;;7.10;99.90;;;;;;4950203;28;20489;-87
2022/01/04 10:04:06;;;;;;;1.17;1.03;;;7.10;99.90;;;;;;4941370;28;20197;-87
2022/01/04 10:06:33;;;;;;;2.80;1.80;;;7.10;99.90;;;;;;4951865;28;20938;-88
2022/01/04 10:09:08;;;;;;;0.97;0.77;;;7.10;99.90;;;;;;4952950;28;20481;-87
2022/01/04 10:11:34;;;;;;;5.33;0.97;;;7.10;99.90;;;;;;4950215;28;20453;-87
2022/01/04 10:14:02;;;;;;;0.80;0.80;;;7.10;99.90;;;;;;4946121;28;20446;-86
2022/01/04 10:16:28;;;;;;;1.00;0.90;;;7.10;99.90;;;;;;4948484;28;20545;-87
2022/01/04 10:18:54;;;;;;;1.00;0.90;;;7.10;99.90;;;;;;4949959;28;20458;-86
2022/01/04 10:21:20;;;;;;;1.73;1.63;;;7.10;99.90;;;;;;4949359;28;20457;-87
2022/01/04 10:23:54;;;;;;;0.90;0.80;;;7.10;99.90;;;;;;4950335;28;20191;-87
2022/01/04 10:26:28;;;;;;;0.90;0.80;;;7.10;99.90;;;;;;4943284;28;20441;-87
2022/01/04 10:28:54;;;;;;;2.30;2.10;;;7.10;99.90;;;;;;4955901;28;20489;-86
2022/01/04 10:31:19;;;;;;;1.20;1.10;;;7.10;99.90;;;;;;4956696;28;20442;-86
2022/01/04 10:33:51;;;;;;;1.10;1.00;;;7.10;99.90;;;;;;4949031;28;20200;-85
2022/01/04 10:36:19;;;;;;;0.80;0.70;;;7.00;99.90;;;;;;4952156;28;20220;-86
2022/01/04 10:38:46;;;;;;;0.90;0.90;;;7.10;99.90;;;;;;4949816;28;20465;-86
2022/01/04 10:41:27;;;;;;;0.80;0.60;;;7.00;99.90;;;;;;4946506;28;20473;-86
2022/01/04 10:43:54;;;;;;;1.00;0.90;;;6.70;99.90;;;;;;4947366;28;20426;-86
2022/01/04 10:46:31;;;;;;;0.80;0.70;;;6.40;99.90;;;;;;4940394;28;20463;-85
2022/01/04 10:48:57;;;;;;;0.80;0.60;;;6.40;99.90;;;;;;4947732;28;20469;-91
2022/01/04 10:51:23;;;;;;;0.80;0.70;;;6.40;99.90;;;;;;4952235;28;20533;-91
2022/01/04 10:53:52;;;;;;;0.80;0.70;;;6.40;99.90;;;;;;4941877;29;20262;-90
2022/01/04 10:56:31;;;;;;;0.80;0.60;;;6.30;99.90;;;;;;4948890;28;20453;-90
2022/01/04 10:58:58;;;;;;;0.80;0.60;;;6.30;99.90;;;;;;4933818;29;22652;-91
2022/01/04 11:01:30;;;;;;;0.80;0.60;;;6.30;99.90;;;;;;4951315;28;20518;-91
2022/01/04 11:03:59;;;;;;;0.80;0.60;;;6.40;99.90;;;;;;4955018;28;20434;-91
2022/01/04 11:06:35;;;;;;;0.80;0.60;;;6.30;99.90;;;;;;4944166;29;20462;-90
2022/01/04 11:09:03;;;;;;;0.77;0.60;;;6.40;99.90;;;;;;4942220;29;20521;-91
2022/01/04 11:11:28;;;;;;;0.80;0.60;;;6.40;99.90;;;;;;4936137;29;20454;-91
2022/01/04 11:13:54;;;;;;;0.80;0.70;;;6.40;99.90;;;;;;4936289;28;20447;-91
2022/01/04 11:16:23;;;;;;;1.10;0.90;;;6.40;99.90;;;;;;4945716;28;20321;-91
2022/01/04 11:18:51;;;;;;;0.80;0.63;;;6.40;99.90;;;;;;4950426;28;20517;-91
2022/01/04 11:21:21;;;;;;;0.80;0.60;;;6.50;99.90;;;;;;4953097;28;20445;-90
2022/01/04 11:23:47;;;;;;;0.80;0.60;;;6.40;99.90;;;;;;4945566;28;21993;-91
2022/01/04 11:26:13;;;;;;;1.20;0.80;;;6.40;99.90;;;;;;4957712;28;20807;-91
2022/01/04 11:28:42;;;;;;;0.80;0.60;;;6.40;99.90;;;;;;4931249;29;20542;-91
2022/01/04 11:31:45;;;;;;;0.83;0.83;;;6.40;99.90;;;;;;4952989;28;20446;-90
2022/01/04 11:34:37;;;;;;;0.80;0.60;;;6.40;99.90;;;;;;4942074;29;20430;-92
2022/01/04 11:37:03;;;;;;;0.80;0.60;;;6.20;99.90;;;;;;4925741;29;20439;-92
2022/01/04 11:39:36;;;;;;;0.80;0.70;;;6.00;99.90;;;;;;4952611;28;20438;-92
2022/01/04 11:42:09;;;;;;;0.80;0.70;;;5.80;99.90;;;;;;4954968;28;20468;-91
2022/01/04 11:44:47;;;;;;;0.80;0.70;;;5.80;99.90;;;;;;4939383;28;20450;-92
2022/01/04 11:47:15;;;;;;;0.80;0.70;;;5.80;99.90;;;;;;4954714;28;20471;-92
2022/01/04 11:50:10;;;;;;;0.80;0.70;;;5.80;99.90;;;;;;4955514;28;20585;-91
2022/01/04 11:52:41;;;;;;;0.80;0.70;;;5.80;99.90;;;;;;4956879;29;20429;-91
2022/01/04 11:55:29;;;;;;;0.80;0.67;;;5.60;99.90;;;;;;4956928;28;20532;-92
2022/01/04 11:57:57;;;;;;;0.80;0.70;;;5.50;99.90;;;;;;4954927;29;20980;-92
2022/01/04 12:00:27;;;;;;;0.80;0.70;;;5.50;99.90;;;;;;4930648;28;20454;-92
2022/01/04 12:03:18;;;;;;;0.80;0.60;;;5.50;99.90;;;;;;4951732;28;20443;-90
2022/01/04 12:05:56;;;;;;;0.80;0.60;;;5.50;99.90;;;;;;4945561;29;20937;-90
2022/01/04 12:08:28;;;;;;;0.80;0.70;;;5.50;99.90;;;;;;4932094;29;20505;-92
2022/01/04 12:10:56;;;;;;;0.80;0.70;;;5.50;99.90;;;;;;4942380;28;20480;-91
2022/01/04 12:13:24;;;;;;;0.80;0.70;;;5.40;99.90;;;;;;4944605;29;20434;-90
2022/01/04 12:16:02;;;;;;;0.80;0.73;;;5.30;99.90;;;;;;4940574;28;20930;-90
2022/01/04 12:18:34;;;;;;;0.80;0.70;;;5.40;99.90;;;;;;4952465;29;20434;-91
2022/01/04 12:21:03;;;;;;;0.80;0.70;;;5.40;99.90;;;;;;4931987;29;20442;-90
2022/01/04 12:23:46;;;;;;;0.80;0.70;;;5.30;99.90;;;;;;4955889;28;20960;-91
2022/01/04 12:26:12;;;;;;;0.80;0.70;;;5.40;99.90;;;;;;4928541;29;21012;-91
2022/01/04 12:29:05;;;;;;;0.80;0.70;;;5.20;99.90;;;;;;4952200;28;20576;-91
2022/01/04 12:31:33;;;;;;;0.80;0.70;;;5.20;99.90;;;;;;4927536;29;20245;-92
2022/01/04 12:34:07;;;;;;;0.80;0.70;;;5.20;99.90;;;;;;4957279;28;20460;-91
2022/01/04 12:36:42;;;;;;;0.80;0.60;;;5.20;99.90;;;;;;4961197;28;20518;-91
2022/01/04 12:39:14;;;;;;;0.80;0.63;;;5.10;99.90;;;;;;4936030;29;20545;-91
2022/01/04 12:41:42;;;;;;;0.80;0.70;;;5.00;99.90;;;;;;4933165;29;20446;-91
2022/01/04 12:44:10;;;;;;;0.80;0.60;;;4.90;99.90;;;;;;4959407;28;20449;-90
2022/01/04 12:46:38;;;;;;;0.80;0.70;;;5.00;99.90;;;;;;4950189;28;20598;-91
2022/01/04 12:49:08;;;;;;;0.80;0.70;;;5.00;99.90;;;;;;4953614;28;20507;-91
2022/01/04 12:51:47;;;;;;;0.80;0.70;;;5.10;99.90;;;;;;4942249;29;20474;-91
2022/01/04 12:54:18;;;;;;;0.80;0.70;;;5.10;99.90;;;;;;4952057;28;20448;-92
2022/01/04 12:56:54;;;;;;;0.80;0.70;;;5.10;99.90;;;;;;4947314;29;20449;-90
2022/01/04 12:59:22;;;;;;;0.80;0.70;;;5.20;99.90;;;;;;4943219;28;20903;-91
2022/01/04 13:01:49;;;;;;;0.80;0.70;;;5.40;99.90;;;;;;4957584;28;20798;-90
2022/01/04 13:04:20;;;;;;;0.80;0.60;;;5.90;99.90;;;;;;4945673;28;20538;-90
2022/01/04 13:06:46;;;;;;;0.80;0.60;;;5.90;99.90;;;;;;4936151;29;21005;-89
2022/01/04 13:09:11;;;;;;;0.80;0.70;;;5.80;99.90;;;;;;4952343;28;20578;-90